Manley, Nebraska
Current Conditions -  °F | °C
As of 12:15 AM on Thursday 23 Oct 2014 (Local Time) from KPMV Reporting Station
Haze Haze  
Wind Chill: 61°   Ceiling: 1700
Heat Index: 61°   Visibility: 2.5mi
Dew Point: 59°   Wind: 5mph
Humidity: 94%   Direction: 140°SE
Pressure: 30.06"   Gusts: NA
Location:  40.92°N, 96.17°W
Report Text: KPMV 230515Z AUTO 14004KT 2 1/2SM BR SCT002 BKN017 OVC110 16/15 A3006 RMK AO2 T01620152
Loading
Personal Weather Stations






























Interactive Weather Map
Tropical Storm Tracking
New forecast layout! Learn more

10-Day Weather Forecast

Advertisements
Track Severe Weather on mobile